Terminal Aerodrome Forecast
Issued by NWS Twin Cities, MN

Home | Current Version | Previous Version | Text Only | Print | Product List | Glossary On
Versions: 1 2 3 4 5 6 7 8 9 10 11 12 13 14 15 16 17 18 19
000
FTUS43 KMPX 091140
TAFSTC
TAF
KSTC 091140Z 0912/1012 28008KT P6SM SCT025 OVC050
     FM091500 29006KT P6SM BKN020 OVC040
     FM092300 30005KT P6SM SCT035 SCT100=

USA.gov is the U.S. government's official web portal to all federal, state and local government web resources and services.